Windsor, Illinois
Current Conditions -  °F | °C
As of 5:53 AM on Sunday 21 Dec 2014 (Local Time) from KMTO Reporting Station
Overcast Overcast  
Wind Chill: 23°   Ceiling: 2700
Heat Index: 31°   Visibility: 7mi
Dew Point: 26°   Wind: 8mph
Humidity: 82%   Direction: 160°SSE
Pressure: 30.24"   Gusts: NA
Location:  39.44°N, 88.59°W
Report Text: KMTO 211153Z AUTO 16007KT 7SM OVC027 M01/M03 A3024 RMK AO2 SLP248 T10061033 11006 21006 55003
Loading
Personal Weather Stations






























Interactive Weather Map New forecast layout! Learn more

10-Day Weather Forecast

Advertisements
Track Severe Weather on mobile